Briar, MO (63931)

2:29 AM CDT on July 11, 2014 (GMT -0500)
Corning (K4M9) Elev 292 ft | 36.40 °N, 90.65 °W | Change Station

Current weather conditions updated 14 minutes ago

Clear
Clear
72 °F
Feels Like 72 °F
N
6
Wind Variable Wind from NNE

Today is forecast to be Warmer than yesterday.

Today
High -- | Low -- °F
--% Chance of Precip.
Yesterday
High -- | Low -- °F
Precip. -- in
5:54 AM 8:24 PM
Waxing Gibbous, 98% visible
Pressure 30.11 in
Visibility 9.0 miles
Clouds Clear
Dew Point 70 °F
Humidity 94%
Rainfall 0.00 in
Snow Depth Not available.
UV 0 out of 12
Pollen 3.40 out of 12
Air Quality Not available.
Flu Activity Sporadic
METAR K4M9 110715Z AUTO 02005KT 9SM CLR 22/21 A3011 RMK AO2

More Conditions Fewer Conditions

Pressure 30.11 in
Visibility 9.0 miles
Clouds Clear
Dew Point 70 °F
Humidity 94%
Rainfall 0.00 in
Snow Depth Not available.
UV 0 out of 12
Pollen 3.40 out of 12
Air Quality Not available.
Flu Activity Sporadic
METAR K4M9 110715Z AUTO 02005KT 9SM CLR 22/21 A3011 RMK AO2

More Conditions Fewer Conditions

10-Day Weather Forecast

Almanac

Astronomy

Jul. 11, 2014 Rise Set
Actual Time 5:54 AM CDT 8:24 PM CDT
Civil Twilight 5:24 AM CDT 8:54 PM CDT
Nautical Twilight 4:47 AM CDT 9:31 PM CDT
Astronomical Twilight 4:05 AM CDT 10:12 PM CDT
Moon 7:36 PM CDT 5:05 AM CDT
Length of Visible Light 15h 29m
Length of Day
14h 29m
Tomorrow will be 1m 1s shorter.
Waxing Gibbous, 98% of the Moon is Illuminated
Today
Waxing Gibbous
Jul 12
Full
Jul 18
Last Quarter
Jul 26
New
Aug 3
First Quarter

Today's Extremes

State Highs State Lows

Community

WunderPhotos

Upload Photos

1,732,407 photos uploaded!

Nearby

Snow Depth

Station Depth Elevation
No new snow has been reported.

Earthquake Activity

City Distance Mag. Time & Date
Malden, Missouri 52 miles 2.8 8:41 AM CDT
2014-07-04
Minimum magnitude displayed is 2.5.

Coastal Water Temperatures

Place Temperature
No Stations Reporting

Nearby Weather Stations

Station Location Temp. Dew Point Humidity Wind Precip. Elev Updated Type
RAWS DONIPHAN MO, Doniphan, MO 68 °F 66 °F 92% North  at  0 mph 0.00 in / hr 634 ft 12:53 AM CDT MADIS
RAWS BIG SPRING MO, Van Buren, MO 67 °F 64 °F 90% SSW  at  1 mph 0.00 in / hr 631 ft 1:22 AM CDT MADIS

Show More Stations Show Fewer Stations